createdAt,value
2018-03-29T00:00:56.340Z,75.25
2018-03-29T00:03:24.439Z,75.19
2018-03-29T00:05:52.634Z,75.31
2018-03-29T00:08:20.733Z,75.66
2018-03-29T00:10:48.861Z,75.76
2018-03-29T00:13:17.211Z,75.55
2018-03-29T00:15:45.323Z,75.58
2018-03-29T00:18:13.403Z,75.61
2018-03-29T00:20:41.539Z,75.99
2018-03-29T00:23:09.759Z,76.29
2018-03-29T00:25:37.854Z,76.33
2018-03-29T00:28:06.252Z,76.94
2018-03-29T00:30:34.362Z,76.71
2018-03-29T00:33:02.493Z,77.07
2018-03-29T00:35:31.114Z,76.70
2018-03-29T00:37:59.231Z,76.63
2018-03-29T00:40:27.322Z,76.57
2018-03-29T00:42:55.415Z,76.85
2018-03-29T00:45:23.543Z,76.86
2018-03-29T00:47:52.537Z,76.77
2018-03-29T00:50:20.650Z,77.07
2018-03-29T00:52:48.745Z,77.10
2018-03-29T00:55:16.879Z,77.40
2018-03-29T00:57:44.969Z,77.38
2018-03-29T01:00:13.067Z,77.43
2018-03-29T01:02:41.601Z,77.52
2018-03-29T01:05:09.674Z,77.44
2018-03-29T01:07:37.770Z,77.43
2018-03-29T01:10:05.866Z,77.45
2018-03-29T01:12:34.365Z,77.65
2018-03-29T01:15:02.467Z,77.46
2018-03-29T01:17:30.634Z,77.51
2018-03-29T01:19:58.746Z,77.18
2018-03-29T01:22:27.205Z,77.04
2018-03-29T01:24:55.301Z,77.16
2018-03-29T01:27:24.190Z,77.38
2018-03-29T01:29:52.477Z,77.44
2018-03-29T01:32:32.361Z,77.15
2018-03-29T01:35:00.965Z,77.10
2018-03-29T01:37:29.058Z,77.32
2018-03-29T01:39:57.326Z,77.75
2018-03-29T01:42:25.422Z,77.12
2018-03-29T01:44:53.517Z,77.32
2018-03-29T01:47:21.657Z,76.93
2018-03-29T01:49:50.090Z,77.23
2018-03-29T01:52:18.191Z,77.68
2018-03-29T01:54:46.309Z,77.36
2018-03-29T01:57:14.411Z,77.84
2018-03-29T01:59:42.501Z,78.27
2018-03-29T02:02:10.607Z,78.42
2018-03-29T02:04:38.752Z,79.07
2018-03-29T02:07:06.844Z,79.23
2018-03-29T02:09:34.995Z,79.18
2018-03-29T02:12:03.155Z,79.18
2018-03-29T02:14:31.249Z,79.05
2018-03-29T02:16:59.369Z,79.22
2018-03-29T02:19:27.476Z,79.37
2018-03-29T02:21:56.266Z,79.49
2018-03-29T02:24:25.131Z,79.53
2018-03-29T02:26:53.240Z,79.53
2018-03-29T02:29:22.287Z,79.43
2018-03-29T02:31:50.380Z,79.30
2018-03-29T02:34:18.843Z,79.42
2018-03-29T02:36:46.956Z,79.46
2018-03-29T02:39:15.155Z,79.27
2018-03-29T02:41:43.254Z,79.18
2018-03-29T02:44:12.551Z,79.25
2018-03-29T02:46:40.678Z,79.03
2018-03-29T02:49:08.777Z,79.06
2018-03-29T02:51:36.871Z,79.01
2018-03-29T02:54:04.981Z,79.13
2018-03-29T02:56:33.085Z,79.59
2018-03-29T02:59:01.183Z,79.77
2018-03-29T03:01:29.563Z,79.93
2018-03-29T03:03:57.833Z,80.04
2018-03-29T03:06:25.962Z,80.13
2018-03-29T03:08:54.995Z,80.24
2018-03-29T03:11:23.114Z,80.27
2018-03-29T03:26:41.225Z,80.40
2018-03-29T03:29:09.333Z,80.62
2018-03-29T03:31:37.470Z,80.54
2018-03-29T03:34:05.600Z,80.35
2018-03-29T03:36:33.705Z,80.61
2018-03-29T03:39:02.740Z,80.34
2018-03-29T03:41:30.857Z,80.25
2018-03-29T03:43:59.003Z,79.97
2018-03-29T03:46:27.577Z,80.04
2018-03-29T03:48:55.685Z,79.82
2018-03-29T03:51:24.037Z,79.84
2018-03-29T03:53:52.142Z,79.96
2018-03-29T03:56:20.299Z,80.22
2018-03-29T03:58:48.413Z,80.21
2018-03-29T04:01:16.517Z,79.98
2018-03-29T04:03:44.663Z,79.84
2018-03-29T04:06:12.786Z,80.19
2018-03-29T04:08:41.232Z,80.01
2018-03-29T04:11:09.703Z,79.99
2018-03-29T04:13:37.825Z,80.12
2018-03-29T04:16:06.232Z,80.13
2018-03-29T04:18:34.665Z,80.27
2018-03-29T04:21:02.780Z,80.20
2018-03-29T04:23:30.861Z,80.12
2018-03-29T04:25:58.985Z,80.38
2018-03-29T04:41:17.133Z,80.19
2018-03-29T04:43:45.550Z,80.12
2018-03-29T04:46:13.631Z,80.06
2018-03-29T04:48:42.488Z,80.26
2018-03-29T04:51:10.613Z,80.07
2018-03-29T04:53:39.651Z,80.14
2018-03-29T04:56:07.865Z,80.43
2018-03-29T04:58:36.250Z,80.05
2018-03-29T05:01:04.345Z,79.90
2018-03-29T05:03:32.460Z,79.77
2018-03-29T05:06:00.554Z,79.75
2018-03-29T05:08:28.734Z,79.61
2018-03-29T05:10:56.851Z,79.50
2018-03-29T05:13:24.951Z,79.54
2018-03-29T05:15:53.080Z,79.78
2018-03-29T05:18:21.207Z,79.51
2018-03-29T05:20:49.315Z,79.45
2018-03-29T05:23:18.451Z,79.48
2018-03-29T05:25:46.773Z,79.61
2018-03-29T05:28:14.865Z,79.42
2018-03-29T05:30:44.249Z,79.41
2018-03-29T05:33:12.355Z,79.41
2018-03-29T05:35:40.547Z,79.28
2018-03-29T05:38:09.005Z,79.27
2018-03-29T05:40:37.658Z,79.29
2018-03-29T05:43:08.285Z,79.12
2018-03-29T05:45:36.401Z,79.44
2018-03-29T05:48:04.510Z,79.24
2018-03-29T05:50:32.613Z,79.12
2018-03-29T05:53:01.257Z,79.22
2018-03-29T05:55:29.470Z,79.82
2018-03-29T05:57:57.573Z,80.04
2018-03-29T06:00:25.682Z,80.12
2018-03-29T06:02:53.890Z,79.98
2018-03-29T06:05:21.997Z,80.26
2018-03-29T06:07:50.126Z,80.49
2018-03-29T06:10:18.227Z,80.64
2018-03-29T06:12:46.370Z,80.96
2018-03-29T06:15:16.391Z,81.21
2018-03-29T06:17:44.565Z,80.88
2018-03-29T06:20:12.920Z,81.09
2018-03-29T06:22:41.038Z,80.81
2018-03-29T06:25:09.153Z,80.68
2018-03-29T06:27:37.908Z,80.26
2018-03-29T06:30:06.210Z,80.25
2018-03-29T06:32:34.308Z,80.06
2018-03-29T06:35:02.478Z,80.08
2018-03-29T06:37:30.598Z,80.54
2018-03-29T06:39:58.708Z,80.30
2018-03-29T06:42:26.813Z,80.19
2018-03-29T06:44:54.909Z,80.34
2018-03-29T06:47:23.039Z,80.14
2018-03-29T06:49:51.130Z,80.15
2018-03-29T06:52:19.266Z,79.95
2018-03-29T06:54:47.390Z,79.75
2018-03-29T06:57:15.474Z,79.70
2018-03-29T06:59:44.186Z,79.45
2018-03-29T07:02:12.334Z,79.49
2018-03-29T07:04:40.446Z,79.61
2018-03-29T07:07:08.546Z,80.01
2018-03-29T07:09:37.136Z,79.54
2018-03-29T07:12:05.287Z,79.28
2018-03-29T07:14:33.938Z,79.05
2018-03-29T07:17:02.056Z,78.92
2018-03-29T07:19:31.204Z,78.58
2018-03-29T07:21:59.293Z,78.57
2018-03-29T07:24:27.466Z,77.92
2018-03-29T07:26:55.574Z,77.75
2018-03-29T07:29:24.633Z,77.15
2018-03-29T07:31:52.726Z,76.83
2018-03-29T07:47:15.861Z,77.67
2018-03-29T07:49:43.965Z,78.41
2018-03-29T07:52:12.099Z,78.65
2018-03-29T07:54:40.206Z,78.84
2018-03-29T07:57:08.306Z,78.93
2018-03-29T07:59:36.540Z,78.46
2018-03-29T08:02:04.673Z,78.36
2018-03-29T08:04:32.815Z,78.38
2018-03-29T08:07:00.923Z,78.10
2018-03-29T08:09:29.032Z,78.23
2018-03-29T08:11:57.130Z,78.08
2018-03-29T08:14:25.256Z,78.17
2018-03-29T08:16:53.648Z,78.35
2018-03-29T08:19:21.812Z,78.10
2018-03-29T08:21:49.965Z,77.82
2018-03-29T08:24:19.057Z,78.03
2018-03-29T08:26:47.199Z,77.76
2018-03-29T08:29:16.102Z,77.82
2018-03-29T08:31:44.195Z,78.54
2018-03-29T08:34:12.282Z,78.28
2018-03-29T08:36:40.386Z,78.18
2018-03-29T08:39:08.759Z,77.84
2018-03-29T08:41:36.878Z,77.37
2018-03-29T08:44:05.118Z,76.79
2018-03-29T08:46:33.190Z,77.02
2018-03-29T08:49:01.305Z,76.95
2018-03-29T08:51:29.428Z,76.81
2018-03-29T08:53:57.522Z,77.23
2018-03-29T08:56:25.626Z,76.97
2018-03-29T08:58:53.752Z,76.51
2018-03-29T09:01:21.834Z,76.28
2018-03-29T09:03:50.746Z,75.68
2018-03-29T09:06:18.830Z,75.72
2018-03-29T09:08:47.012Z,75.51
2018-03-29T09:11:15.072Z,75.06
2018-03-29T09:13:43.176Z,74.68
2018-03-29T09:16:12.130Z,73.84
2018-03-29T09:18:40.249Z,73.76
2018-03-29T09:21:09.182Z,73.64
2018-03-29T09:23:37.291Z,72.34
2018-03-29T09:26:05.416Z,71.93
2018-03-29T09:28:33.514Z,70.98
2018-03-29T09:31:01.630Z,71.65
2018-03-29T09:33:29.729Z,70.57
2018-03-29T09:35:57.834Z,70.11
2018-03-29T09:38:25.946Z,69.05
2018-03-29T09:40:54.270Z,69.11
2018-03-29T09:43:22.387Z,69.11
2018-03-29T09:45:50.492Z,67.98
2018-03-29T09:48:18.598Z,67.69
2018-03-29T09:50:46.749Z,66.89
2018-03-29T09:53:15.999Z,67.55
2018-03-29T09:55:44.127Z,66.34
2018-03-29T09:58:12.226Z,64.33
2018-03-29T10:00:40.353Z,64.84
2018-03-29T10:03:09.278Z,64.76
2018-03-29T10:05:38.192Z,63.70
2018-03-29T10:08:06.354Z,64.39
2018-03-29T10:10:34.458Z,64.82
2018-03-29T10:13:02.570Z,64.85
2018-03-29T10:15:30.704Z,64.98
2018-03-29T10:17:58.796Z,64.52
2018-03-29T10:20:26.894Z,63.72
2018-03-29T10:22:55.030Z,64.02
2018-03-29T10:38:13.154Z,64.25
2018-03-29T10:40:41.262Z,63.52
2018-03-29T10:43:10.158Z,64.49
2018-03-29T10:45:39.068Z,64.49
2018-03-29T10:48:07.183Z,64.19
2018-03-29T10:50:35.322Z,65.04
2018-03-29T10:53:03.450Z,63.91
2018-03-29T10:55:31.580Z,64.69
2018-03-29T10:57:59.695Z,64.65
2018-03-29T11:13:22.897Z,61.49
2018-03-29T11:15:51.214Z,61.71
2018-03-29T11:18:19.315Z,61.21
2018-03-29T11:20:48.040Z,58.63
2018-03-29T11:23:16.170Z,57.35
2018-03-29T11:25:44.275Z,57.85
2018-03-29T11:28:14.056Z,59.80
2018-03-29T11:30:42.157Z,58.76
2018-03-29T11:33:11.135Z,58.41
2018-03-29T11:35:41.830Z,58.53
2018-03-29T11:38:10.016Z,59.75
2018-03-29T11:40:38.177Z,59.96
2018-03-29T11:43:06.307Z,59.52
2018-03-29T11:45:35.334Z,59.51
2018-03-29T11:48:03.726Z,60.76
2018-03-29T11:50:31.823Z,61.99
2018-03-29T11:52:59.944Z,61.71
2018-03-29T11:55:28.042Z,63.10
2018-03-29T11:57:56.212Z,63.00
2018-03-29T12:00:24.347Z,61.88
2018-03-29T12:15:42.458Z,61.24
2018-03-29T12:18:10.608Z,60.99
2018-03-29T12:20:38.751Z,60.39
2018-03-29T12:23:06.846Z,59.85
2018-03-29T12:25:34.972Z,61.31
2018-03-29T12:28:03.079Z,60.16
2018-03-29T12:30:31.308Z,61.67
2018-03-29T12:32:59.429Z,59.98
2018-03-29T12:35:27.543Z,59.52
2018-03-29T12:37:55.730Z,59.39
2018-03-29T12:40:24.118Z,56.85
2018-03-29T12:42:52.243Z,54.19
2018-03-29T12:45:20.998Z,54.33
2018-03-29T12:47:49.087Z,54.71
2018-03-29T12:50:17.538Z,53.66
2018-03-29T12:52:45.627Z,55.12
2018-03-29T12:55:26.085Z,54.93
2018-03-29T12:58:12.882Z,52.73
2018-03-29T13:00:45.940Z,53.63
2018-03-29T13:03:14.034Z,53.34
2018-03-29T13:05:43.354Z,51.64
2018-03-29T13:08:11.478Z,51.84
2018-03-29T13:10:39.620Z,49.56
2018-03-29T13:15:44.188Z,50.49
2018-03-29T13:18:12.286Z,47.59
2018-03-29T13:20:40.414Z,48.90
2018-03-29T13:23:08.568Z,48.34
2018-03-29T13:25:36.733Z,47.94
2018-03-29T13:28:04.857Z,46.92
2018-03-29T13:30:33.021Z,48.87
2018-03-29T13:33:01.806Z,49.07
2018-03-29T13:35:30.195Z,48.55
2018-03-29T13:37:58.346Z,49.90
2018-03-29T13:40:26.732Z,49.46
2018-03-29T13:42:55.151Z,49.95
2018-03-29T13:45:23.266Z,49.09
2018-03-29T13:47:51.507Z,48.44
2018-03-29T13:50:19.607Z,47.30
2018-03-29T13:52:48.447Z,46.98
2018-03-29T13:55:17.385Z,46.35
2018-03-29T13:57:45.498Z,46.43
2018-03-29T14:00:14.118Z,46.85
2018-03-29T14:02:42.270Z,47.00
2018-03-29T14:05:10.435Z,47.11
2018-03-29T14:07:38.640Z,45.90
2018-03-29T14:10:06.828Z,45.94
2018-03-29T14:12:34.950Z,46.08
2018-03-29T14:15:03.045Z,45.71
2018-03-29T14:17:31.486Z,46.31
2018-03-29T14:19:59.606Z,46.15
2018-03-29T14:22:27.817Z,46.35
2018-03-29T14:24:55.907Z,46.49
2018-03-29T14:27:24.010Z,46.92
2018-03-29T14:29:52.498Z,47.39
2018-03-29T14:32:20.744Z,46.42
2018-03-29T14:34:48.850Z,46.49
2018-03-29T14:37:17.084Z,47.58
2018-03-29T14:39:45.257Z,48.18
2018-03-29T14:42:13.509Z,46.78
2018-03-29T14:44:41.653Z,49.08
2018-03-29T14:47:10.095Z,48.21
2018-03-29T14:49:38.172Z,48.09
2018-03-29T14:52:06.321Z,47.68
2018-03-29T14:54:34.414Z,46.79
2018-03-29T14:57:03.491Z,47.56
2018-03-29T14:59:31.965Z,46.02
2018-03-29T15:02:00.150Z,46.26
2018-03-29T15:04:28.367Z,46.60
2018-03-29T15:06:56.798Z,46.69
2018-03-29T15:09:24.920Z,46.52
2018-03-29T15:11:53.765Z,46.70
2018-03-29T15:14:21.867Z,46.72
2018-03-29T15:16:49.977Z,47.58
2018-03-29T15:19:18.078Z,49.53
2018-03-29T15:21:46.216Z,46.76
2018-03-29T15:24:14.261Z,46.62
2018-03-29T15:26:42.362Z,47.68
2018-03-29T15:29:10.483Z,46.28
2018-03-29T15:31:38.633Z,46.67
2018-03-29T15:34:06.701Z,46.32
2018-03-29T15:36:40.091Z,46.41
2018-03-29T15:39:08.277Z,46.46
2018-03-29T15:41:36.371Z,47.83
2018-03-29T15:44:04.457Z,47.26
2018-03-29T15:46:32.549Z,47.20
2018-03-29T15:49:00.687Z,46.62
2018-03-29T15:51:28.775Z,46.86
2018-03-29T15:53:56.891Z,46.91
2018-03-29T15:56:25.043Z,46.25
2018-03-29T15:58:53.139Z,46.10
2018-03-29T16:01:22.186Z,45.66
2018-03-29T16:03:50.979Z,45.73
2018-03-29T16:06:19.068Z,45.99
2018-03-29T16:08:47.492Z,45.71
2018-03-29T16:11:15.627Z,45.78
2018-03-29T16:13:43.727Z,46.35
2018-03-29T16:16:12.704Z,46.50
2018-03-29T16:18:43.211Z,47.17
2018-03-29T16:21:11.326Z,46.60
2018-03-29T16:23:39.445Z,47.08
2018-03-29T16:26:07.565Z,46.78
2018-03-29T16:28:35.691Z,46.50
2018-03-29T16:31:04.171Z,46.73
2018-03-29T16:33:32.275Z,47.04
2018-03-29T16:36:00.678Z,46.61
2018-03-29T16:38:28.770Z,47.05
2018-03-29T16:40:56.868Z,47.01
2018-03-29T16:43:25.054Z,46.99
2018-03-29T16:45:53.239Z,47.62
2018-03-29T16:48:21.373Z,47.75
2018-03-29T16:50:49.516Z,46.89
2018-03-29T16:53:22.881Z,47.59
2018-03-29T16:55:51.112Z,48.45
2018-03-29T16:58:19.218Z,48.22
2018-03-29T17:00:47.318Z,46.90
2018-03-29T17:03:16.158Z,47.67
2018-03-29T17:05:44.295Z,47.16
2018-03-29T17:08:13.742Z,47.24
2018-03-29T17:10:41.925Z,47.59
2018-03-29T17:13:10.641Z,47.58
2018-03-29T17:15:38.895Z,47.91
2018-03-29T17:18:06.983Z,48.12
2018-03-29T17:20:35.078Z,47.91
2018-03-29T17:23:03.273Z,48.34
2018-03-29T17:25:31.472Z,47.81
2018-03-29T17:27:59.594Z,47.86
2018-03-29T17:30:27.736Z,47.95
2018-03-29T17:32:55.846Z,47.50
2018-03-29T17:35:24.494Z,47.39
2018-03-29T17:37:52.598Z,47.75
2018-03-29T17:40:20.752Z,47.45
2018-03-29T17:42:48.844Z,47.54
2018-03-29T17:45:16.979Z,48.06
2018-03-29T17:47:45.080Z,47.35
2018-03-29T17:50:14.054Z,47.21
2018-03-29T17:52:42.156Z,47.67
2018-03-29T17:55:10.262Z,48.12
2018-03-29T17:57:39.631Z,46.88
2018-03-29T18:00:07.825Z,47.63
2018-03-29T18:02:35.946Z,47.28
2018-03-29T18:05:04.383Z,47.59
2018-03-29T18:07:33.468Z,48.16
2018-03-29T18:10:01.653Z,48.19
2018-03-29T18:12:29.752Z,47.40
2018-03-29T18:14:57.854Z,47.59
2018-03-29T18:17:26.597Z,47.76
2018-03-29T18:19:54.733Z,47.52
2018-03-29T18:22:22.853Z,47.89
2018-03-29T18:24:51.232Z,48.27
2018-03-29T18:27:20.628Z,48.15
2018-03-29T18:29:48.795Z,48.04
2018-03-29T18:32:16.916Z,48.05
2018-03-29T18:34:45.804Z,47.96
2018-03-29T18:37:13.936Z,47.96
2018-03-29T18:39:42.267Z,48.27
2018-03-29T18:42:10.435Z,48.63
2018-03-29T18:44:38.602Z,48.61
2018-03-29T18:47:06.695Z,49.51
2018-03-29T18:49:34.839Z,48.90
2018-03-29T18:52:02.958Z,49.52
2018-03-29T18:54:31.165Z,49.09
2018-03-29T18:56:59.253Z,49.95
2018-03-29T18:59:28.201Z,49.63
2018-03-29T19:01:56.311Z,50.80
2018-03-29T19:04:24.428Z,49.75
2018-03-29T19:06:52.561Z,50.56
2018-03-29T19:09:20.657Z,49.58
2018-03-29T19:11:49.554Z,50.14
2018-03-29T19:14:17.682Z,49.86
2018-03-29T19:16:45.837Z,50.38
2018-03-29T19:19:13.934Z,50.14
2018-03-29T19:21:42.349Z,50.23
2018-03-29T19:24:11.078Z,50.34
2018-03-29T19:26:39.177Z,50.35
2018-03-29T19:29:07.577Z,50.52
2018-03-29T19:31:35.973Z,50.13
2018-03-29T19:34:04.269Z,50.93
2018-03-29T19:36:32.545Z,50.99
2018-03-29T19:39:01.579Z,50.81
2018-03-29T19:41:29.701Z,50.77
2018-03-29T19:43:58.849Z,50.95
2018-03-29T19:46:27.851Z,50.66
2018-03-29T19:48:55.992Z,50.16
2018-03-29T19:51:24.103Z,50.20
2018-03-29T19:53:52.947Z,50.24
2018-03-29T19:56:21.077Z,50.25
2018-03-29T19:58:49.215Z,49.87
2018-03-29T20:01:17.801Z,49.81
2018-03-29T20:03:45.964Z,50.13
2018-03-29T20:06:14.121Z,50.03
2018-03-29T20:08:42.222Z,50.24
2018-03-29T20:11:10.335Z,50.64
2018-03-29T20:13:39.134Z,49.23
2018-03-29T20:16:07.304Z,48.98
2018-03-29T20:18:35.421Z,50.06
2018-03-29T20:21:03.589Z,50.22
2018-03-29T20:23:32.379Z,51.04
2018-03-29T20:42:06.248Z,53.19
2018-03-29T20:44:34.344Z,54.78
2018-03-29T20:47:02.474Z,55.93
2018-03-29T20:49:30.598Z,56.09
2018-03-29T20:51:58.692Z,57.39
2018-03-29T20:54:26.899Z,57.88
2018-03-29T20:56:55.051Z,58.47
2018-03-29T20:59:23.147Z,59.36
2018-03-29T21:01:52.344Z,60.48
2018-03-29T21:04:20.402Z,60.85
2018-03-29T21:06:49.694Z,61.79
2018-03-29T21:09:17.803Z,62.20
2018-03-29T21:11:45.911Z,62.44
2018-03-29T21:14:13.994Z,62.40
2018-03-29T21:16:42.109Z,63.01
2018-03-29T21:19:10.331Z,63.18
2018-03-29T21:21:39.293Z,63.68
2018-03-29T21:24:08.174Z,64.15
2018-03-29T21:26:36.271Z,64.31
2018-03-29T21:29:04.440Z,64.99
2018-03-29T21:31:32.614Z,65.16
2018-03-29T21:34:00.703Z,65.92
2018-03-29T21:36:28.950Z,66.12
2018-03-29T21:39:02.002Z,65.57
2018-03-29T21:41:30.097Z,66.32
2018-03-29T21:43:58.191Z,65.77
2018-03-29T21:46:26.308Z,65.34
2018-03-29T21:48:54.461Z,65.62
2018-03-29T21:51:22.550Z,65.39
2018-03-29T21:53:50.655Z,66.09
2018-03-29T21:56:18.758Z,66.13
2018-03-29T21:58:46.861Z,66.25
2018-03-29T22:01:14.989Z,66.53
2018-03-29T22:03:43.082Z,66.77
2018-03-29T22:06:11.188Z,66.92
2018-03-29T22:21:29.296Z,66.90
2018-03-29T22:23:57.370Z,66.15
2018-03-29T22:26:25.501Z,66.45
2018-03-29T22:28:53.561Z,66.23
2018-03-29T22:31:21.653Z,66.36
2018-03-29T22:33:49.777Z,66.37
2018-03-29T22:36:18.404Z,66.21
2018-03-29T22:38:47.818Z,66.61
2018-03-29T22:41:15.937Z,66.29
2018-03-29T22:43:44.842Z,66.77
2018-03-29T22:46:13.696Z,66.33
2018-03-29T22:48:41.786Z,66.70
2018-03-29T22:51:09.886Z,66.18
2018-03-29T22:53:38.681Z,66.51
2018-03-29T22:56:07.664Z,66.78
2018-03-29T22:58:35.846Z,66.19
2018-03-29T23:01:03.919Z,66.57
2018-03-29T23:03:32.035Z,66.33
2018-03-29T23:06:00.214Z,66.31
2018-03-29T23:08:28.298Z,66.26
2018-03-29T23:10:56.423Z,66.36
2018-03-29T23:15:58.779Z,65.94
2018-03-29T23:18:26.918Z,66.26
2018-03-29T23:20:55.035Z,65.87
2018-03-29T23:23:23.141Z,65.79
2018-03-29T23:25:51.242Z,65.61
2018-03-29T23:28:19.360Z,65.66
2018-03-29T23:30:47.493Z,65.46
2018-03-29T23:33:15.593Z,65.99
2018-03-29T23:35:44.462Z,66.11
2018-03-29T23:38:15.602Z,66.41
2018-03-29T23:40:43.748Z,66.89
2018-03-29T23:43:11.822Z,67.84
2018-03-29T23:45:39.909Z,67.97
2018-03-29T23:48:08.003Z,68.48
2018-03-29T23:50:36.097Z,68.86
2018-03-29T23:53:04.333Z,68.98
2018-03-29T23:55:32.511Z,69.54
2018-03-29T23:58:12.331Z,69.76
